createdAt,value
2023-02-09T00:01:31.944Z,8.95
2023-02-09T00:04:00.311Z,8.63
2023-02-09T00:06:30.190Z,8.80
2023-02-09T00:08:59.652Z,8.73
2023-02-09T00:11:48.856Z,9.10
2023-02-09T00:14:21.537Z,8.15
2023-02-09T00:16:50.270Z,8.75
2023-02-09T00:19:18.931Z,8.57
2023-02-09T00:21:46.728Z,9.52
2023-02-09T00:24:14.760Z,10.45
2023-02-09T00:26:42.514Z,9.18
2023-02-09T00:29:10.110Z,8.70
2023-02-09T00:31:37.731Z,9.32
2023-02-09T00:34:05.418Z,9.68
2023-02-09T00:36:33.304Z,8.90
2023-02-09T00:39:01.454Z,8.65
2023-02-09T00:41:46.702Z,9.18
2023-02-09T00:44:13.641Z,8.30
2023-02-09T00:46:40.580Z,8.30
2023-02-09T00:49:08.058Z,8.15
2023-02-09T00:51:35.275Z,8.35
2023-02-09T00:54:03.370Z,8.40
2023-02-09T00:56:30.471Z,9.15
2023-02-09T00:58:57.410Z,8.13
2023-02-09T01:01:25.204Z,9.30
2023-02-09T01:03:53.094Z,8.40
2023-02-09T01:06:20.869Z,8.27
2023-02-09T01:08:48.291Z,8.75
2023-02-09T01:11:16.642Z,9.25
2023-02-09T01:13:45.199Z,8.52
2023-02-09T01:16:17.239Z,8.48
2023-02-09T01:18:45.593Z,8.00
2023-02-09T01:21:21.747Z,8.73
2023-02-09T01:23:49.630Z,8.23
2023-02-09T01:26:18.075Z,8.35
2023-02-09T01:28:53.051Z,8.00
2023-02-09T01:31:30.635Z,7.85
2023-02-09T01:34:01.650Z,7.65
2023-02-09T01:36:31.025Z,8.10
2023-02-09T01:39:01.798Z,7.40
2023-02-09T01:41:29.501Z,8.05
2023-02-09T01:44:08.170Z,7.68
2023-02-09T01:46:36.854Z,7.28
2023-02-09T01:49:13.452Z,8.02
2023-02-09T01:51:53.571Z,8.38
2023-02-09T01:54:27.166Z,8.35
2023-02-09T01:57:05.245Z,8.77
2023-02-09T01:59:36.424Z,8.60
2023-02-09T02:02:06.910Z,8.73
2023-02-09T02:04:35.559Z,7.90
2023-02-09T02:07:28.725Z,8.60
2023-02-09T02:09:56.238Z,8.88
2023-02-09T02:12:24.647Z,8.02
2023-02-09T02:14:51.556Z,8.52
2023-02-09T02:17:54.000Z,8.52
2023-02-09T02:20:48.583Z,9.52
2023-02-09T02:23:38.365Z,8.50
2023-02-09T02:26:32.631Z,8.18
2023-02-09T02:29:08.648Z,8.57
2023-02-09T02:31:58.799Z,9.35
2023-02-09T02:34:40.366Z,8.20
2023-02-09T02:37:09.970Z,9.05
2023-02-09T02:40:03.699Z,8.18
2023-02-09T02:42:55.318Z,10.10
2023-02-09T02:45:45.830Z,8.38
2023-02-09T02:48:34.386Z,8.55
2023-02-09T02:51:14.309Z,8.27
2023-02-09T02:53:48.707Z,9.57
2023-02-09T02:56:30.435Z,8.90
2023-02-09T02:59:02.303Z,9.65
2023-02-09T03:01:39.333Z,9.60
2023-02-09T03:04:08.949Z,9.55
2023-02-09T03:06:37.759Z,9.80
2023-02-09T03:09:05.562Z,10.02
2023-02-09T03:11:43.572Z,9.65
2023-02-09T03:14:42.575Z,8.82
2023-02-09T03:17:24.648Z,9.27
2023-02-09T03:19:59.567Z,9.05
2023-02-09T03:22:41.621Z,10.35
2023-02-09T03:25:31.520Z,9.88
2023-02-09T03:28:07.344Z,8.65
2023-02-09T03:30:35.742Z,8.70
2023-02-09T03:33:05.225Z,10.00
2023-02-09T03:35:39.775Z,8.98
2023-02-09T03:38:07.213Z,10.52
2023-02-09T03:40:35.146Z,9.00
2023-02-09T03:43:02.050Z,10.23
2023-02-09T03:45:28.944Z,10.13
2023-02-09T03:47:55.849Z,10.75
2023-02-09T03:50:22.852Z,11.52
2023-02-09T03:52:50.687Z,11.27
2023-02-09T03:55:17.962Z,10.48
2023-02-09T03:57:44.858Z,9.70
2023-02-09T04:00:13.168Z,10.15
2023-02-09T04:02:42.350Z,9.07
2023-02-09T04:05:10.043Z,10.73
2023-02-09T04:07:37.871Z,10.88
2023-02-09T04:10:06.113Z,9.90
2023-02-09T04:12:33.013Z,10.35
2023-02-09T04:14:59.896Z,10.98
2023-02-09T04:17:26.912Z,10.68
2023-02-09T04:19:53.778Z,11.52
2023-02-09T04:22:20.666Z,11.48
2023-02-09T04:24:47.540Z,10.65
2023-02-09T04:27:14.364Z,11.45
2023-02-09T04:29:41.260Z,10.52
2023-02-09T04:32:08.151Z,11.18
2023-02-09T04:34:35.084Z,11.25
2023-02-09T04:37:01.950Z,11.40
2023-02-09T04:39:29.000Z,11.32
2023-02-09T04:41:55.894Z,12.05
2023-02-09T04:44:22.854Z,12.27
2023-02-09T04:46:49.783Z,12.13
2023-02-09T04:49:16.649Z,11.77
2023-02-09T04:51:43.556Z,11.82
2023-02-09T04:54:10.460Z,11.88
2023-02-09T04:56:38.815Z,11.32
2023-02-09T04:59:24.286Z,12.70
2023-02-09T05:01:52.081Z,12.48
2023-02-09T05:04:19.006Z,10.98
2023-02-09T05:06:45.936Z,11.20
2023-02-09T05:09:12.838Z,11.23
2023-02-09T05:11:39.734Z,10.15
2023-02-09T05:14:07.769Z,12.10
2023-02-09T05:16:34.638Z,11.63
2023-02-09T05:19:01.551Z,11.48
2023-02-09T05:21:28.412Z,11.85
2023-02-09T05:23:55.321Z,12.20
2023-02-09T05:26:22.212Z,13.43
2023-02-09T05:28:49.084Z,16.27
2023-02-09T05:31:16.663Z,14.45
2023-02-09T05:33:43.868Z,14.82
2023-02-09T05:36:12.737Z,16.95
2023-02-09T05:38:40.119Z,15.52
2023-02-09T05:41:10.235Z,17.50
2023-02-09T05:43:37.949Z,17.42
2023-02-09T05:46:08.080Z,16.33
2023-02-09T05:48:35.221Z,16.05
2023-02-09T05:51:02.093Z,15.27
2023-02-09T05:53:29.062Z,15.65
2023-02-09T05:55:56.027Z,15.50
2023-02-09T05:58:22.894Z,15.25
2023-02-09T06:00:49.758Z,16.73
2023-02-09T06:03:16.641Z,15.98
2023-02-09T06:05:46.269Z,18.00
2023-02-09T06:08:13.258Z,18.25
2023-02-09T06:10:40.246Z,17.73
2023-02-09T06:13:07.301Z,16.92
2023-02-09T06:15:34.361Z,20.52
2023-02-09T06:18:01.276Z,20.27
2023-02-09T06:20:28.256Z,17.85
2023-02-09T06:22:55.178Z,20.33
2023-02-09T06:25:22.050Z,20.25
2023-02-09T06:27:49.041Z,18.02
2023-02-09T06:30:16.248Z,20.38
2023-02-09T06:32:43.145Z,20.00
2023-02-09T06:35:10.048Z,22.17
2023-02-09T06:37:36.996Z,21.73
2023-02-09T06:40:04.381Z,21.25
2023-02-09T06:42:43.908Z,20.50
2023-02-09T06:45:17.202Z,22.23
2023-02-09T06:47:46.312Z,20.58
2023-02-09T06:50:17.571Z,20.95
2023-02-09T06:52:45.573Z,20.42
2023-02-09T06:55:13.463Z,19.25
2023-02-09T06:57:41.011Z,19.92
2023-02-09T07:00:09.982Z,20.00
2023-02-09T07:02:36.906Z,21.95
2023-02-09T07:05:04.534Z,20.95
2023-02-09T07:07:31.721Z,19.70
2023-02-09T07:09:58.640Z,19.67
2023-02-09T07:12:35.247Z,18.48
2023-02-09T07:15:02.217Z,20.63
2023-02-09T07:17:30.859Z,21.08
2023-02-09T07:19:58.395Z,21.70
2023-02-09T07:22:27.162Z,21.52
2023-02-09T07:24:54.139Z,20.95
2023-02-09T07:27:25.486Z,22.42
2023-02-09T07:29:52.814Z,21.88
2023-02-09T07:32:22.665Z,23.63
2023-02-09T07:34:49.844Z,22.67
2023-02-09T07:37:16.776Z,23.35
2023-02-09T07:39:43.822Z,23.02
2023-02-09T07:42:10.868Z,19.77
2023-02-09T07:44:49.264Z,19.38
2023-02-09T07:47:16.240Z,21.20
2023-02-09T07:49:43.197Z,20.95
2023-02-09T07:52:10.365Z,22.83
2023-02-09T07:54:37.287Z,20.77
2023-02-09T07:57:04.132Z,20.85
2023-02-09T07:59:31.075Z,21.25
2023-02-09T08:01:58.518Z,20.05
2023-02-09T08:04:26.540Z,19.75
2023-02-09T08:06:55.000Z,21.55
2023-02-09T08:09:21.860Z,22.17
2023-02-09T08:11:56.187Z,21.23
2023-02-09T08:14:35.469Z,20.57
2023-02-09T08:17:23.609Z,20.70
2023-02-09T08:20:08.676Z,23.15
2023-02-09T08:22:41.712Z,22.92
2023-02-09T08:25:09.383Z,21.73
2023-02-09T08:27:39.610Z,20.67
2023-02-09T08:30:07.274Z,22.05
2023-02-09T08:32:34.100Z,22.17
2023-02-09T08:35:01.201Z,21.20
2023-02-09T08:37:28.165Z,21.58
2023-02-09T08:39:55.084Z,20.23
2023-02-09T08:42:22.002Z,19.05
2023-02-09T08:44:49.163Z,20.45
2023-02-09T08:47:23.853Z,18.02
2023-02-09T08:49:51.101Z,20.02
2023-02-09T08:52:18.576Z,17.38
2023-02-09T08:54:45.528Z,21.00
2023-02-09T08:57:12.424Z,22.23
2023-02-09T08:59:39.271Z,21.58
2023-02-09T09:02:06.527Z,20.50
2023-02-09T09:04:33.382Z,23.05
2023-02-09T09:07:00.442Z,24.65
2023-02-09T09:09:28.551Z,23.17
2023-02-09T09:12:00.399Z,20.50
2023-02-09T09:14:27.618Z,20.88
2023-02-09T09:16:58.380Z,21.40
2023-02-09T09:19:28.549Z,19.85
2023-02-09T09:21:58.459Z,19.30
2023-02-09T09:24:41.351Z,17.67
2023-02-09T09:27:10.680Z,18.20
2023-02-09T09:29:40.219Z,18.20
2023-02-09T09:32:10.475Z,15.82
2023-02-09T09:34:37.699Z,17.17
2023-02-09T09:37:05.123Z,15.70
2023-02-09T09:39:32.383Z,16.33
2023-02-09T09:42:01.043Z,14.10
2023-02-09T09:44:36.562Z,15.30
2023-02-09T09:49:38.220Z,14.95
2023-02-09T09:52:20.903Z,14.52
2023-02-09T09:54:48.054Z,15.65
2023-02-09T09:57:27.339Z,14.45
2023-02-09T09:59:56.611Z,13.43
2023-02-09T10:02:33.158Z,13.57
2023-02-09T10:05:22.842Z,13.02
2023-02-09T10:08:01.594Z,11.25
2023-02-09T10:11:06.242Z,12.05
2023-02-09T10:13:49.110Z,12.90
2023-02-09T10:16:27.196Z,10.98
2023-02-09T10:19:05.276Z,11.07
2023-02-09T10:21:37.106Z,11.15
2023-02-09T10:24:23.162Z,11.38
2023-02-09T10:29:29.629Z,10.77
2023-02-09T10:32:11.317Z,9.27
2023-02-09T10:34:38.111Z,10.30
2023-02-09T10:37:19.950Z,10.73
2023-02-09T10:40:27.284Z,10.75
2023-02-09T10:42:59.884Z,10.07
2023-02-09T10:45:46.030Z,10.52
2023-02-09T10:48:13.037Z,10.65
2023-02-09T10:50:59.661Z,9.82
2023-02-09T10:53:35.010Z,9.60
2023-02-09T10:56:22.698Z,10.40
2023-02-09T10:59:16.535Z,10.52
2023-02-09T11:02:48.726Z,10.10
2023-02-09T11:05:21.578Z,9.93
2023-02-09T11:08:23.512Z,10.15
2023-02-09T11:11:13.259Z,9.98
2023-02-09T11:13:42.285Z,9.45
2023-02-09T11:16:44.681Z,10.65
2023-02-09T11:19:22.385Z,9.38
2023-02-09T11:21:59.054Z,9.30
2023-02-09T11:25:16.136Z,9.50
2023-02-09T11:28:08.329Z,9.63
2023-02-09T11:31:12.965Z,10.60
2023-02-09T11:33:52.805Z,10.02
2023-02-09T11:36:31.481Z,10.38
2023-02-09T11:39:04.065Z,8.77
2023-02-09T11:41:59.069Z,9.68
2023-02-09T11:44:44.337Z,9.20
2023-02-09T11:47:21.783Z,9.52
2023-02-09T11:49:56.503Z,9.50
2023-02-09T11:53:00.863Z,9.27
2023-02-09T11:55:45.407Z,9.30
2023-02-09T11:58:36.413Z,9.25
2023-02-09T12:01:35.355Z,8.80
2023-02-09T12:04:16.855Z,9.15
2023-02-09T12:06:51.850Z,9.05
2023-02-09T12:09:33.659Z,9.32
2023-02-09T12:12:37.485Z,9.45
2023-02-09T12:15:19.798Z,9.02
2023-02-09T12:17:58.812Z,8.95
2023-02-09T12:20:37.382Z,9.20
2023-02-09T12:23:19.681Z,9.68
2023-02-09T12:26:01.694Z,8.85
2023-02-09T12:28:31.455Z,9.00
2023-02-09T12:30:58.425Z,9.75
2023-02-09T12:33:26.369Z,9.63
2023-02-09T12:36:15.933Z,10.57
2023-02-09T12:38:56.590Z,10.27
2023-02-09T12:41:26.020Z,10.95
2023-02-09T12:44:56.913Z,11.30
2023-02-09T12:48:19.161Z,11.52
2023-02-09T12:50:50.350Z,11.27
2023-02-09T12:53:29.500Z,12.15
2023-02-09T12:56:11.221Z,11.70
2023-02-09T12:58:44.418Z,12.35
2023-02-09T13:01:16.565Z,12.98
2023-02-09T13:04:02.989Z,12.85
2023-02-09T13:07:13.254Z,12.00
2023-02-09T13:09:42.818Z,13.00
2023-02-09T13:12:28.266Z,11.93
2023-02-09T13:14:59.781Z,12.05
2023-02-09T13:17:44.010Z,12.52
2023-02-09T13:20:38.521Z,12.80
2023-02-09T13:23:55.981Z,13.05
2023-02-09T13:26:28.239Z,11.57
2023-02-09T13:29:20.471Z,13.90
2023-02-09T13:32:28.820Z,12.00
2023-02-09T13:35:23.724Z,10.98
2023-02-09T13:37:59.340Z,10.50
2023-02-09T13:40:30.636Z,10.85
2023-02-09T13:43:20.756Z,11.30
2023-02-09T13:45:54.806Z,10.40
2023-02-09T13:48:39.167Z,11.52
2023-02-09T13:51:19.100Z,11.25
2023-02-09T13:54:01.868Z,10.10
2023-02-09T13:56:42.848Z,11.18
2023-02-09T13:59:17.498Z,10.68
2023-02-09T14:01:48.233Z,11.45
2023-02-09T14:04:25.871Z,10.88
2023-02-09T14:07:09.619Z,10.10
2023-02-09T14:10:10.806Z,10.32
2023-02-09T14:12:59.868Z,10.95
2023-02-09T14:16:00.988Z,10.27
2023-02-09T14:18:51.474Z,10.48
2023-02-09T14:21:43.115Z,10.68
2023-02-09T14:24:22.063Z,10.32
2023-02-09T14:26:52.003Z,10.55
2023-02-09T14:29:32.766Z,10.82
2023-02-09T14:32:05.559Z,9.95
2023-02-09T14:34:38.602Z,10.85
2023-02-09T14:37:11.566Z,10.25
2023-02-09T14:40:04.646Z,10.80
2023-02-09T14:42:34.739Z,11.05
2023-02-09T14:45:15.249Z,9.63
2023-02-09T14:47:44.644Z,10.50
2023-02-09T14:50:18.391Z,11.05
2023-02-09T14:52:49.305Z,10.65
2023-02-09T14:55:25.038Z,10.70
2023-02-09T14:57:52.209Z,10.57
2023-02-09T15:00:28.239Z,10.77
2023-02-09T15:02:55.243Z,11.85
2023-02-09T15:05:24.126Z,11.18
2023-02-09T15:07:55.993Z,11.73
2023-02-09T15:10:38.858Z,11.75
2023-02-09T15:13:06.049Z,12.57
2023-02-09T15:15:37.484Z,12.02
2023-02-09T15:18:05.338Z,10.52
2023-02-09T15:20:33.123Z,12.65
2023-02-09T15:23:03.528Z,12.02
2023-02-09T15:25:30.817Z,13.00
2023-02-09T15:28:00.496Z,13.75
2023-02-09T15:30:35.362Z,11.65
2023-02-09T15:33:02.798Z,13.05
2023-02-09T15:35:30.141Z,13.25
2023-02-09T15:38:00.253Z,12.85
2023-02-09T15:40:52.032Z,12.25
2023-02-09T15:43:40.991Z,12.55
2023-02-09T15:46:29.614Z,12.02
2023-02-09T15:48:56.901Z,12.85
2023-02-09T15:51:27.073Z,12.77
2023-02-09T15:54:21.262Z,13.55
2023-02-09T15:56:48.336Z,12.68
2023-02-09T15:59:22.498Z,13.45
2023-02-09T16:01:50.724Z,13.18
2023-02-09T16:04:18.208Z,13.40
2023-02-09T16:06:54.442Z,13.13
2023-02-09T16:09:27.781Z,13.38
2023-02-09T16:11:55.426Z,12.98
2023-02-09T16:14:26.863Z,14.30
2023-02-09T16:16:53.948Z,13.27
2023-02-09T16:19:21.581Z,12.90
2023-02-09T16:21:56.781Z,12.50
2023-02-09T16:24:41.322Z,13.35
2023-02-09T16:27:23.956Z,13.13
2023-02-09T16:30:00.804Z,13.40
2023-02-09T16:32:30.390Z,15.10
2023-02-09T16:35:07.372Z,12.77
2023-02-09T16:37:44.771Z,12.57
2023-02-09T16:40:33.073Z,13.27
2023-02-09T16:46:03.753Z,13.13
2023-02-09T16:48:34.874Z,13.57
2023-02-09T16:51:03.674Z,13.60
2023-02-09T16:53:41.826Z,12.68
2023-02-09T16:56:15.774Z,13.45
2023-02-09T16:58:44.287Z,13.27
2023-02-09T17:01:19.320Z,14.02
2023-02-09T17:03:56.383Z,15.02
2023-02-09T17:06:28.218Z,14.32
2023-02-09T17:08:56.800Z,12.85
2023-02-09T17:11:27.689Z,15.45
2023-02-09T17:13:54.749Z,14.93
2023-02-09T17:16:51.074Z,15.43
2023-02-09T17:19:19.473Z,15.05
2023-02-09T17:21:46.385Z,15.32
2023-02-09T17:47:31.681Z,15.95
2023-02-09T17:49:58.758Z,15.68
2023-02-09T17:52:28.105Z,16.48
2023-02-09T17:55:02.364Z,16.48
2023-02-09T17:57:29.321Z,16.02
2023-02-09T17:59:56.320Z,17.20
2023-02-09T18:02:23.407Z,16.35
2023-02-09T18:04:50.373Z,19.90
2023-02-09T18:07:20.515Z,22.55
2023-02-09T18:09:47.690Z,24.23
2023-02-09T18:12:22.067Z,24.75
2023-02-09T18:14:49.434Z,21.93
2023-02-09T18:17:16.682Z,23.35
2023-02-09T18:19:43.933Z,19.98
2023-02-09T18:22:17.036Z,20.33
2023-02-09T18:24:44.558Z,19.67
2023-02-09T18:27:20.325Z,17.15
2023-02-09T18:29:47.820Z,16.75
2023-02-09T18:32:16.927Z,18.15
2023-02-09T18:34:46.789Z,17.00
2023-02-09T18:37:17.377Z,17.30
2023-02-09T18:39:46.979Z,15.55
2023-02-09T18:42:16.261Z,16.08
2023-02-09T18:44:43.340Z,14.77
2023-02-09T18:47:16.768Z,16.13
2023-02-09T18:49:43.684Z,16.00
2023-02-09T18:52:17.022Z,18.90
2023-02-09T18:54:44.195Z,16.67
2023-02-09T18:57:13.139Z,18.35
2023-02-09T18:59:40.784Z,16.88
2023-02-09T19:02:11.333Z,17.02
2023-02-09T19:04:38.501Z,18.17
2023-02-09T19:07:06.412Z,17.30
2023-02-09T19:09:33.652Z,16.67
2023-02-09T19:12:01.221Z,15.75
2023-02-09T19:14:41.938Z,18.23
2023-02-09T19:17:16.027Z,18.02
2023-02-09T19:19:44.598Z,16.70
2023-02-09T19:22:20.938Z,17.83
2023-02-09T19:24:52.424Z,18.80
2023-02-09T19:27:20.284Z,17.30
2023-02-09T19:29:47.267Z,16.65
2023-02-09T19:32:15.455Z,15.90
2023-02-09T19:34:45.289Z,17.35
2023-02-09T19:37:17.859Z,17.90
2023-02-09T19:40:04.293Z,16.80
2023-02-09T19:42:32.793Z,17.00
2023-02-09T19:44:59.821Z,15.63
2023-02-09T19:47:27.453Z,15.90
2023-02-09T19:49:58.549Z,16.20
2023-02-09T19:52:27.821Z,16.77
2023-02-09T19:54:56.617Z,17.17
2023-02-09T19:57:24.861Z,17.90
2023-02-09T19:59:53.483Z,15.23
2023-02-09T20:02:20.532Z,16.63
2023-02-09T20:04:47.528Z,17.88
2023-02-09T20:07:15.265Z,15.85
2023-02-09T20:09:42.480Z,16.52
2023-02-09T20:12:09.697Z,17.88
2023-02-09T20:14:36.828Z,15.48
2023-02-09T20:17:03.786Z,15.80
2023-02-09T20:19:31.568Z,15.07
2023-02-09T20:22:14.648Z,13.23
2023-02-09T20:24:45.921Z,15.18
2023-02-09T20:27:13.163Z,14.68
2023-02-09T20:29:40.186Z,15.85
2023-02-09T20:32:07.414Z,18.02
2023-02-09T20:34:34.326Z,16.23
2023-02-09T20:37:01.258Z,17.40
2023-02-09T20:39:28.200Z,17.85
2023-02-09T20:42:16.518Z,16.88
2023-02-09T20:45:02.682Z,16.70
2023-02-09T20:47:30.154Z,17.58
2023-02-09T20:49:59.952Z,16.25
2023-02-09T20:52:29.085Z,17.90
2023-02-09T20:54:56.579Z,18.13
2023-02-09T20:57:29.341Z,17.48
2023-02-09T21:36:53.888Z,15.13
2023-02-09T21:40:05.820Z,15.73
2023-02-09T21:42:51.523Z,16.17
2023-02-09T22:02:18.159Z,15.30
2023-02-09T22:04:46.807Z,15.48
2023-02-09T22:07:14.660Z,15.02
2023-02-09T22:12:53.058Z,15.20
2023-02-09T22:15:19.987Z,14.35
2023-02-09T22:17:48.520Z,15.15
2023-02-09T22:20:15.444Z,13.80
2023-02-09T22:22:45.221Z,12.38
2023-02-09T22:25:12.374Z,13.02
2023-02-09T22:27:39.251Z,12.52
2023-02-09T22:30:06.797Z,12.90
2023-02-09T22:32:33.666Z,12.65
2023-02-09T22:35:00.502Z,11.55
2023-02-09T22:37:27.410Z,11.95
2023-02-09T22:39:54.393Z,11.15
2023-02-09T22:42:21.579Z,11.85
2023-02-09T22:44:48.726Z,11.70
2023-02-09T22:47:15.578Z,11.93
2023-02-09T22:49:45.365Z,11.68
2023-02-09T22:52:12.616Z,11.57
2023-02-09T22:54:39.474Z,11.25
2023-02-09T22:57:06.363Z,11.77
2023-02-09T22:59:33.300Z,11.73
2023-02-09T23:02:00.188Z,11.43
2023-02-09T23:04:27.150Z,12.75
2023-02-09T23:06:54.056Z,11.55
2023-02-09T23:09:20.942Z,12.32
2023-02-09T23:11:47.803Z,12.38
2023-02-09T23:14:14.676Z,12.63
2023-02-09T23:16:43.635Z,12.25
2023-02-09T23:19:15.426Z,12.20
2023-02-09T23:21:49.414Z,13.15
2023-02-09T23:24:21.643Z,11.63
2023-02-09T23:26:48.785Z,12.95
2023-02-09T23:29:17.206Z,12.52
2023-02-09T23:31:46.939Z,12.50
2023-02-09T23:34:20.994Z,11.85
2023-02-09T23:36:48.050Z,12.43
2023-02-09T23:39:18.696Z,11.80
2023-02-09T23:41:46.157Z,12.90
2023-02-09T23:44:13.241Z,12.27
2023-02-09T23:46:40.780Z,13.40
2023-02-09T23:49:07.697Z,13.45
2023-02-09T23:51:36.356Z,12.48
2023-02-09T23:54:06.527Z,11.90
2023-02-09T23:56:37.136Z,13.52
2023-02-09T23:59:08.486Z,13.90
